Flight Track Log - Related Links

Times and Time Zones

All times are in EDT time to prevent confusion due to time zone crossing. See the SWA1761 flight status page for this flight to view local times or setup timezone preferences in your user account.

Time Position Orientation Groundspeed Altitude Reporting Facility
EDT Latitude Longitude Course Direction KTS MPH feet Rate Location/Type
Sun 04:05:16 PM 39.5060 -119.7690 180° South 115 132  Level FlightAware ADS-B
Sun 04:05:44 PM 39.4840 -119.7690 180° South 176 203 4,900 5,813 Climbing FlightAware ADS-B
Sun 04:06:20 PM 39.4530 -119.7690 180° South 199 229 6,200 2,125 Climbing FlightAware ADS-B
Sun 04:06:32 PM 39.4410 -119.7690 180° South 215 247 6,600 2,550 Climbing FlightAware ADS-B
Sun 04:07:00 PM 39.4130 -119.7680 178° South 225 259 7,900 2,875 Climbing FlightAware ADS-B
Sun 04:07:20 PM 39.3920 -119.7690 182° South 225 259 8,900 2,727 Climbing FlightAware ADS-B
Sun 04:07:44 PM 39.3650 -119.7690 180° South 240 276 9,900 2,900 Climbing FlightAware ADS-B
Sun 04:08:20 PM 39.3260 -119.7710 182° South 245 282 11,800 2,864 Climbing FlightAware ADS-B
Sun 04:08:28 PM 39.3160 -119.7680 167° South 258 297 12,000 1,200 Climbing FlightAware ADS-B
Sun 04:08:40 PM 39.3040 -119.7570 145° Southeast 283 326 12,200 1,000 Climbing FlightAware ADS-B
Sun 04:09:16 PM 39.2680 -119.7080 133° Southeast 343 395 12,800 1,853 Climbing FlightAware ADS-B
Sun 04:09:48 PM 39.2320 -119.6580 133° Southeast 356 410 14,300 2,382 Climbing FlightAware ADS-B
Sun 04:10:24 PM 39.1930 -119.6020 132° Southeast 368 423 15,500 2,471 Climbing FlightAware ADS-B
Sun 04:10:56 PM 39.1560 -119.5480 131° Southeast 376 433 17,100 2,912 Climbing FlightAware ADS-B
Sun 04:11:32 PM 39.1120 -119.4910 135° Southeast 377 434 18,800 2,757 Climbing FlightAware ADS-B
Sun 04:12:10 PM 39.0630 -119.4310 136° Southeast 385 443 20,500 2,676 Climbing FlightAware ADS-B
Sun 04:12:46 PM 39.0170 -119.3740 136° Southeast 389 448 22,100 2,559 Climbing FlightAware ADS-B
Sun 04:13:18 PM 38.9740 -119.3220 137° Southeast 396 456 23,400 2,464 Climbing FlightAware ADS-B
Sun 04:13:42 PM 38.9420 -119.2820 136° Southeast 401 461 24,400 1,969 Climbing FlightAware ADS-B
Sun 04:14:22 PM 38.8910 -119.2180 136° Southeast 415 478 25,500 1,792 Climbing FlightAware ADS-B
Sun 04:14:59 PM 38.8380 -119.1530 136° Southeast 425 489 26,700 1,171 Climbing FlightAware ADS-B
Sun 04:15:44 PM 38.7790 -119.0800 136° Southeast 429 494 27,100 1,650 Climbing FlightAware ADS-B
Sun 04:15:49 PM 38.9860 -119.3370 316° Northwest 28,100 3,086 Climbing FlightAware ADS-B
Sun 04:16:19 PM 38.7590 -119.0560 136° Southeast 433 498 28,900 2,143 Climbing FlightAware ADS-B
Sun 04:16:59 PM 38.6670 -118.9440 136° Southeast 432 497 30,600 1,658 Climbing FlightAware ADS-B
Sun 04:17:35 PM 38.6170 -118.8820 136° Southeast 435 501 31,000 320 Climbing FlightAware ADS-B
Sun 04:18:14 PM 38.5570 -118.8090 136° Southeast 435 501 31,000 143 Level FlightAware ADS-B
Sun 04:18:59 PM 38.4970 -118.7360 136° Southeast 435 501 31,200 148 Climbing FlightAware ADS-B
Sun 04:19:35 PM 38.4530 -118.6820 136° Southeast 435 501 31,200  Level FlightAware ADS-B
Sun 04:19:59 PM 38.4230 -118.6450 136° Southeast 435 501 31,200  Level FlightAware ADS-B
Sun 04:22:00 PM 38.2740 -118.4620 136° Southeast 435 501 31,200  Level FlightAware ADS-B
Sun 04:22:41 PM 38.2240 -118.4000 136° Southeast 435 501 31,200  Level FlightAware ADS-B
Sun 04:23:20 PM 38.1760 -118.3410 136° Southeast 435 501 31,200  Level FlightAware ADS-B
Sun 04:23:54 PM 38.1340 -118.2900 136° Southeast 435 501 31,200  Level FlightAware ADS-B
Sun 04:24:30 PM 38.0900 -118.2350 135° Southeast 435 501 31,200  Level FlightAware ADS-B
Sun 04:25:07 PM 38.0440 -118.1790 136° Southeast 435 501 31,200  Level FlightAware ADS-B
Sun 04:25:43 PM 38.0000 -118.1250 136° Southeast 435 501 31,200  Level FlightAware ADS-B
Sun 04:26:19 PM 37.9560 -118.0710 136° Southeast 435 501 31,200  Level FlightAware ADS-B
Sun 04:26:55 PM 37.9110 -118.0170 137° Southeast 435 501 31,200  Level FlightAware ADS-B
Sun 04:27:31 PM 37.8670 -117.9630 136° Southeast 435 501 31,200  Level FlightAware ADS-B
Sun 04:28:07 PM 37.8230 -117.9080 135° Southeast 435 501 31,200 1,059 Level FlightAware ADS-B
Sun 04:29:13 PM 37.6120 -117.6820 140° Southeast 427 491 33,000 931 Climbing FlightAware ADS-B
Sun 04:30:03 PM 37.5430 -117.6020 137° Southeast 428 493 33,000  Level FlightAware ADS-B
Sun 04:30:40 PM 37.4980 -117.5490 137° Southeast 428 493 33,000  Level FlightAware ADS-B
Sun 04:31:16 PM 37.4530 -117.4970 137° Southeast 428 493 33,000  Level FlightAware ADS-B
Sun 04:31:59 PM 37.3680 -117.3980 137° Southeast 428 493 33,000  Level FlightAware ADS-B
Sun 04:32:34 PM 37.3160 -117.3390 138° Southeast 428 493 33,000  Level FlightAware ADS-B
Sun 04:33:07 PM 37.2700 -117.2850 137° Southeast 428 493 33,000  Level FlightAware ADS-B
Sun 04:33:45 PM 37.2140 -117.2210 138° Southeast 428 493 33,000  Level FlightAware ADS-B
Sun 04:34:17 PM 37.1670 -117.1660 137° Southeast 426 490 33,000  Level FlightAware ADS-B
Sun 04:34:48 PM 37.1220 -117.1140 137° Southeast 425 489 33,000  Level FlightAware ADS-B
Sun 04:35:30 PM 37.0710 -117.0560 138° Southeast 425 489 33,000  Level FlightAware ADS-B
Sun 04:36:06 PM 37.0270 -117.0040 137° Southeast 425 489 33,000  Level FlightAware ADS-B
Sun 04:36:42 PM 36.9830 -116.9530 137° Southeast 425 489 33,000  Level FlightAware ADS-B
Sun 04:37:20 PM 36.9370 -116.8990 137° Southeast 425 489 33,000  Level FlightAware ADS-B
Sun 04:37:54 PM 36.8950 -116.8500 137° Southeast 425 489 33,000  Level FlightAware ADS-B
Sun 04:38:30 PM 36.8510 -116.7990 137° Southeast 425 489 33,000  Level FlightAware ADS-B
Sun 04:39:06 PM 36.8070 -116.7480 137° Southeast 425 489 33,000  Level FlightAware ADS-B
Sun 04:39:42 PM 36.7630 -116.6960 137° Southeast 425 489 33,000  Level FlightAware ADS-B
Sun 04:40:32 PM 36.7020 -116.6250 137° Southeast 425 489 33,000  Level FlightAware ADS-B
Sun 04:41:23 PM 36.6400 -116.5530 137° Southeast 425 489 33,000  Level FlightAware ADS-B
Sun 04:42:00 PM 36.5950 -116.5000 137° Southeast 425 489 33,000  Level FlightAware ADS-B
Sun 04:43:24 PM 36.4920 -116.3810 137° Southeast 425 489 33,000  Level FlightAware ADS-B
Sun 04:44:01 PM 36.4470 -116.3290 137° Southeast 425 489 33,000 -10,333 Level FlightAware ADS-B
Sun 04:44:36 PM 36.3790 -116.1500 115° Southeast 352 405 20,600 -11,324 Descending FlightAware ADS-B
Sun 04:45:12 PM 36.3410 -116.0970 132° Southeast 348 400 19,600 -1,765 Descending FlightAware ADS-B
Sun 04:45:44 PM 36.3060 -116.0470 131° Southeast 354 407 18,600 -1,765 Descending FlightAware ADS-B
Sun 04:46:20 PM 36.2670 -115.9940 132° Southeast 349 402 17,600 -1,770 Descending FlightAware ADS-B
Sun 04:46:45 PM 36.2420 -115.9580 131° Southeast 347 399 16,800 -1,477 Descending FlightAware ADS-B
Sun 04:47:25 PM 36.2010 -115.8960 129° Southeast 328 377 16,000 -538 Descending FlightAware ADS-B
Sun 04:48:03 PM 36.1790 -115.8320 113° Southeast 316 364 16,100 79 Climbing FlightAware ADS-B
Sun 04:48:41 PM 36.1590 -115.7710 112° Southeast 317 365 16,100 -405 Level FlightAware ADS-B
Sun 04:49:17 PM 36.1390 -115.7080 111° Southeast 313 360 15,600 -1,147 Descending FlightAware ADS-B
Sun 04:49:49 PM 36.1220 -115.6570 112° Southeast 310 357 14,800 -1,500 Descending FlightAware ADS-B
Sun 04:50:21 PM 36.1050 -115.6040 112° Southeast 306 352 14,000 -973 Descending FlightAware ADS-B
Sun 04:51:03 PM 36.0850 -115.5410 111° Southeast 305 351 13,600 -308 Descending FlightAware ADS-B
Sun 04:51:39 PM 36.0700 -115.4910 110° East 305 351 13,600  Level FlightAware ADS-B
Sun 04:52:15 PM 36.0550 -115.4420 111° Southeast 305 351 13,600 -1,524 Level FlightAware ADS-B
Sun 04:54:44 PM 36.0180 -115.1900 100° East 268 308 8,900 -1,775 Descending FlightAware ADS-B
Sun 04:55:04 PM 36.0160 -115.1590 95° East 267 307 8,600 -857 Descending FlightAware ADS-B
Sun 04:55:26 PM 36.0130 -115.1250 96° East 264 304 8,300 -714 Descending FlightAware ADS-B
Sun 04:55:46 PM 36.0110 -115.0960 95° East 259 298 8,100 -419 Descending FlightAware ADS-B
Sun 04:56:09 PM 36.0090 -115.0640 94° East 254 292 8,000 -615 Descending FlightAware ADS-B
Sun 04:56:25 PM 36.0080 -115.0400 93° East 249 287 7,700 -1,395 Descending FlightAware ADS-B
Sun 04:56:52 PM 36.0050 -115.0020 96° East 240 276 7,000 -1,149 Descending FlightAware ADS-B
Sun 04:57:12 PM 36.0040 -114.9750 93° East 230 265 6,800 -750 Descending FlightAware ADS-B
Sun 04:57:16 PM 36.0040 -114.9700 90° East 230 265 6,700 -1,500 Descending FlightAware ADS-B
Sun 04:57:24 PM 36.0070 -114.9610 68° East 232 267 6,500 -1,500 Descending FlightAware ADS-B
Sun 04:57:32 PM 36.0130 -114.9530 47° Northeast 233 268 6,300 -1,875 Descending FlightAware ADS-B
Sun 04:57:40 PM 36.0210 -114.9480 27° Northeast 237 273 6,000 -2,308 Descending FlightAware ADS-B
Sun 04:57:45 PM 36.0260 -114.9470 North 238 274 5,800 -1,286 Descending FlightAware ADS-B
Sun 04:58:08 PM 36.0520 -114.9490 356° North 231 266 5,400 -1,059 Descending FlightAware ADS-B
Sun 04:58:19 PM 36.0630 -114.9540 340° North 225 259 5,200 -706 Descending FlightAware ADS-B
Sun 04:58:25 PM 36.0670 -114.9580 321° Northwest 220 253 5,200 -1,000 Level FlightAware ADS-B
Sun 04:58:37 PM 36.0730 -114.9720 298° West 207 238 4,900 -1,500 Descending FlightAware ADS-B
Sun 04:58:49 PM 36.0740 -114.9850 275° West 198 228 4,600 -1,543 Descending FlightAware ADS-B
Sun 04:59:12 PM 36.0740 -115.0110 270° West 203 234 4,000 -1,500 Descending FlightAware ADS-B
Sun 04:59:37 PM 36.0740 -115.0400 270° West 197 227 3,400 -960 Descending FlightAware ADS-B
Sun 05:00:27 PM 36.0740 -115.0780 270° West 177 204 2,800 -830 Descending FlightAware ADS-B
Sun 05:01:11 PM 36.0740 -115.1280 270° West 169 194 2,100 -955 Descending FlightAware ADS-B
Sun 05:01:33 PM 36.0740 -115.1480 270° West 76 87 -5,727 Descending FlightAware ADS-B

Login

Don't have an account? Register now (free) for customized features, flight alerts, and more!